Picada Cafe, Brazil
Current Conditions -  °F | °C
As of 8:00 AM on Monday 22 Dec 2014 (Local Time) from SBCO Reporting Station
Broken Clouds Broken Clouds  
Wind Chill: 68°   Ceiling: 1700
Heat Index: 68°   Visibility: 6mi
Dew Point: 63°   Wind: 12mph
Humidity: 83%   Direction: 250°WSW
Pressure: 29.91"   Gusts: NA
Location:  29.44°S, 51.14°W
Report Text: SBCO 221000Z 25010KT 9999 BKN017 20/17 Q1013
Loading
Personal Weather Stations






























Interactive Weather Map New forecast layout! Learn more

10-Day Weather Forecast

Advertisements
Track Severe Weather on mobile